Terminal Aerodrome Forecast
Issued by NWS Twin Cities, MN

Home | Current Version | Previous Version | Text Only | Print | Product List | Glossary On
Versions: 1 2 3 4 5 6 7 8 9 10 11 12
057
FTUS43 KMPX 060540
TAFSTC
TAF
KSTC 060540Z 0606/0706 24009KT P6SM SKC
     FM060800 24005KT P6SM SKC
     FM061800 26013G20KT P6SM SCT250
     FM070300 33012KT P6SM BKN100=

USA.gov is the U.S. government's official web portal to all federal, state and local government web resources and services.